Home > Products > Valid Products > TAF

000
FTUS43 KUNR 270500
TAFRAP
TAF
KRAP 270520Z 2706/2806 15006KT P6SM SCT090 OVC110
     FM271400 25007KT P6SM BKN250
     FM271700 34018G28KT P6SM SCT100 BKN250
     FM280000 35012KT P6SM OVC250=



000
FTUS43 KUNR 270500
TAFGCC
TAF
KGCC 270520Z 2706/2806 20006KT P6SM BKN050 OVC080
     FM271200 31013KT P6SM OVC100
     FM271700 32014G24KT P6SM OVC250=



000
FTUS43 KUNR 270500
TAFRAP
TAF
KRAP 270520Z 2706/2806 15006KT P6SM SCT090 OVC110
     FM271400 25007KT P6SM BKN250
     FM271700 34018G28KT P6SM SCT100 BKN250
     FM280000 35012KT P6SM OVC250=



000
FTUS43 KUNR 270500
TAFGCC
TAF
KGCC 270520Z 2706/2806 20006KT P6SM BKN050 OVC080
     FM271200 31013KT P6SM OVC100
     FM271700 32014G24KT P6SM OVC250=



000
FTUS43 KUNR 262300
TAFGCC
TAF
KGCC 262320Z 2700/2724 34011KT P6SM SCT050 OVC080
     FM270200 27008KT P6SM BKN050 OVC080
     FM271000 31011KT P6SM BKN100
     FM271700 32015G25KT P6SM OVC250=



000
FTUS43 KUNR 262300
TAFGCC
TAF
KGCC 262320Z 2700/2724 34011KT P6SM SCT050 OVC080
     FM270200 27008KT P6SM BKN050 OVC080
     FM271000 31011KT P6SM BKN100
     FM271700 32015G25KT P6SM OVC250=



000
FTUS43 KUNR 262300
TAFRAP
TAF
KRAP 262320Z 2700/2724 02011KT P6SM SCT050 OVC150
     FM270200 VRB05KT P6SM OVC050
     FM271500 33015KT P6SM OVC250
     FM271700 33017G27KT P6SM OVC250=



000
FTUS43 KUNR 262300
TAFRAP
TAF
KRAP 262320Z 2700/2724 02011KT P6SM SCT050 OVC150
     FM270200 VRB05KT P6SM OVC050
     FM271500 33015KT P6SM OVC250
     FM271700 33017G27KT P6SM OVC250=



000
FTUS43 KUNR 261700
TAFGCC
TAF
KGCC 261725Z 2618/2718 33015KT P6SM BKN050
     FM270100 27008KT P6SM BKN040
     FM271000 30012G22KT P6SM OVC100=



000
FTUS43 KUNR 261700
TAFRAP
TAF
KRAP 261725Z 2618/2718 34022G32KT P6SM SCT050 OVC150
     FM270000 VRB05KT P6SM OVC070
     FM271500 33020G30KT P6SM OVC250=



000
FTUS43 KUNR 261700
TAFRAP
TAF
KRAP 261725Z 2618/2718 34022G32KT P6SM SCT050 OVC150
     FM270000 VRB05KT P6SM OVC070
     FM271500 33020G30KT P6SM OVC250=



000
FTUS43 KUNR 261700
TAFGCC
TAF
KGCC 261725Z 2618/2718 33015KT P6SM BKN050
     FM270100 27008KT P6SM BKN040
     FM271000 30012G22KT P6SM OVC100=



000
FTUS43 KUNR 261400 AAB
TAFGCC
TAF AMD
KGCC 261429Z 2614/2712 32018G28KT P6SM BKN050
      TEMPO 2614/2616 -SHRA BKN028
     FM270100 25008KT P6SM BKN040=



000
FTUS43 KUNR 261400 AAB
TAFGCC
TAF AMD
KGCC 261429Z 2614/2712 32018G28KT P6SM BKN050
      TEMPO 2614/2616 -SHRA BKN028
     FM270100 25008KT P6SM BKN040=



000
FTUS43 KUNR 261300 AAA
TAFGCC
TAF AMD
KGCC 261300Z 2613/2712 32018G28KT P6SM BKN050
     FM270100 25008KT P6SM BKN040=



000
FTUS43 KUNR 261300 AAA
TAFGCC
TAF AMD
KGCC 261300Z 2613/2712 32018G28KT P6SM BKN050
     FM270100 25008KT P6SM BKN040=



000
FTUS43 KUNR 261100
TAFGCC
TAF
KGCC 261138Z 2612/2712 31012KT P6SM BKN060
     FM261400 32018G28KT P6SM BKN060
     FM270100 25008KT P6SM BKN040=



000
FTUS43 KUNR 261100
TAFRAP
TAF
KRAP 261138Z 2612/2712 30008KT P6SM BKN070
     FM261500 34022G32KT P6SM SCT050 BKN100
     FM270000 36009KT P6SM BKN060=



000
FTUS43 KUNR 261100
TAFRAP
TAF
KRAP 261138Z 2612/2712 30008KT P6SM BKN070
     FM261500 34022G32KT P6SM SCT050 BKN100
     FM270000 36009KT P6SM BKN060=



000
FTUS43 KUNR 261100
TAFGCC
TAF
KGCC 261138Z 2612/2712 31012KT P6SM BKN060
     FM261400 32018G28KT P6SM BKN060
     FM270100 25008KT P6SM BKN040=



000
FTUS43 KUNR 260500
TAFGCC
TAF
KGCC 260520Z 2606/2706 20008KT P6SM BKN080
     FM261400 32018G28KT P6SM BKN040
     FM270100 29008KT P6SM BKN040=



000
FTUS43 KUNR 260500
TAFRAP
TAF
KRAP 260520Z 2606/2706 VRB05KT P6SM BKN100
     FM261500 34025G35KT P6SM BKN080
     FM270100 36009KT P6SM BKN060=



000
FTUS43 KUNR 252300
TAFRAP
TAF
KRAP 252320Z 2600/2624 35020G30KT P6SM SCT040
     FM260200 VRB05KT P6SM BKN120
     FM261500 34025G35KT P6SM BKN080=



000
FTUS43 KUNR 252300
TAFGCC
TAF
KGCC 252320Z 2600/2624 31012KT P6SM BKN050
     FM260200 VRB05KT P6SM BKN120
     FM261400 32018G28KT P6SM BKN040=



000
FTUS43 KUNR 252300
TAFRAP
TAF
KRAP 252320Z 2600/2624 35020G30KT P6SM SCT040
     FM260200 VRB05KT P6SM BKN120
     FM261500 34025G35KT P6SM BKN080=



000
FTUS43 KUNR 252300
TAFGCC
TAF
KGCC 252320Z 2600/2624 31012KT P6SM BKN050
     FM260200 VRB05KT P6SM BKN120
     FM261400 32018G28KT P6SM BKN040=



000
FTUS43 KUNR 251700
TAFRAP
TAF
KRAP 251725Z 2518/2618 35022G32KT P6SM SCT040
     FM260200 VRB05KT P6SM SCT120=



000
FTUS43 KUNR 251700
TAFGCC
TAF
KGCC 251725Z 2518/2618 33010KT P6SM BKN040
      TEMPO 2518/2519 BKN020
     FM260200 VRB05KT P6SM BKN150=



000
FTUS43 KUNR 251700
TAFGCC
TAF
KGCC 251725Z 2518/2618 33010KT P6SM BKN040
      TEMPO 2518/2519 BKN020
     FM260200 VRB05KT P6SM BKN150=



000
FTUS43 KUNR 251700
TAFRAP
TAF
KRAP 251725Z 2518/2618 35022G32KT P6SM SCT040
     FM260200 VRB05KT P6SM SCT120=



000
FTUS43 KUNR 251200 AAA
TAFRAP
TAF AMD
KRAP 251244Z 2513/2612 35015KT P6SM BKN025
      TEMPO 2514/2516 SCT030
     FM251600 35020G30KT P6SM SCT040
     FM260200 VRB05KT P6SM SCT120
     FM261000 VRB05KT P6SM BKN040=



000
FTUS43 KUNR 251200 AAA
TAFRAP
TAF AMD
KRAP 251244Z 2513/2612 35015KT P6SM BKN025
      TEMPO 2514/2516 SCT030
     FM251600 35020G30KT P6SM SCT040
     FM260200 VRB05KT P6SM SCT120
     FM261000 VRB05KT P6SM BKN040=



000
FTUS43 KUNR 251100
TAFGCC
TAF
KGCC 251127Z 2512/2612 33007KT P6SM BKN012
      TEMPO 2512/2514 BKN008
     FM251500 33008KT P6SM BKN020
     FM251800 33010KT P6SM BKN040
     FM260200 23006KT P6SM SCT040=



000
FTUS43 KUNR 251100
TAFRAP
TAF
KRAP 251127Z 2512/2612 35015KT P6SM SCT025
      TEMPO 2512/2514 BKN020
     FM251600 35020G30KT P6SM SCT040
     FM260200 VRB05KT P6SM SCT120
     FM261000 VRB05KT P6SM BKN040=



000
FTUS43 KUNR 251000 AAA
TAFGCC
TAF AMD
KGCC 251026Z 2510/2606 35007KT P6SM BKN015
      TEMPO 2510/2513 BKN006
     FM251800 33010KT P6SM BKN040=



000
FTUS43 KUNR 251000 AAA
TAFGCC
TAF AMD
KGCC 251026Z 2510/2606 35007KT P6SM BKN015
      TEMPO 2510/2513 BKN006
     FM251800 33010KT P6SM BKN040=



000
FTUS43 KUNR 250900 AAB
TAFRAP
TAF AMD
KRAP 250956Z 2510/2606 35015KT P6SM OVC020
     FM251500 35020G30KT P6SM SCT030
     FM260100 34009KT P6SM SCT120=



000
FTUS43 KUNR 250600 AAA
TAFRAP
TAF AMD
KRAP 250650Z 2507/2606 01012KT P6SM SCT010
      TEMPO 2508/2512 OVC010
     FM251500 35020G30KT P6SM SCT025
     FM260100 34009KT P6SM SCT120=



000
FTUS43 KUNR 250600 AAA
TAFRAP
TAF AMD
KRAP 250650Z 2507/2606 01012KT P6SM SCT010
      TEMPO 2508/2512 OVC010
     FM251500 35020G30KT P6SM SCT025
     FM260100 34009KT P6SM SCT120=



000
FTUS43 KUNR 250500
TAFGCC
TAF
KGCC 250520Z 2506/2606 36010KT P6SM SCT060 BKN100
      TEMPO 2510/2514 BKN020=



000
FTUS43 KUNR 250500
TAFRAP
TAF
KRAP 250520Z 2506/2606 34018G28KT P6SM SCT120
     FM260100 34009KT P6SM SCT120=



000
FTUS43 KUNR 250500
TAFRAP
TAF
KRAP 250520Z 2506/2606 34018G28KT P6SM SCT120
     FM260100 34009KT P6SM SCT120=



000
FTUS43 KUNR 250500
TAFGCC
TAF
KGCC 250520Z 2506/2606 36010KT P6SM SCT060 BKN100
      TEMPO 2510/2514 BKN020=



000
FTUS43 KUNR 242300
TAFGCC
TAF
KGCC 242320Z 2500/2524 33012KT P6SM SCT040 BKN080
      TEMPO 2510/2514 BKN020=



000
FTUS43 KUNR 242300
TAFGCC
TAF
KGCC 242320Z 2500/2524 33012KT P6SM SCT040 BKN080
      TEMPO 2510/2514 BKN020=



000
FTUS43 KUNR 242300
TAFRAP
TAF
KRAP 242320Z 2500/2524 34014KT P6SM FEW080 BKN120
     FM250500 35018G28KT P6SM BKN120
     FM252000 33016KT P6SM BKN200=



000
FTUS43 KUNR 242300
TAFRAP
TAF
KRAP 242320Z 2500/2524 34014KT P6SM FEW080 BKN120
     FM250500 35018G28KT P6SM BKN120
     FM252000 33016KT P6SM BKN200=



000
FTUS43 KUNR 242100 AAA
TAFGCC
TAF AMD
KGCC 242105Z 2421/2518 33010KT P6SM SCT050 OVC120
      TEMPO 2421/2501 -SHRA BKN050=



000
FTUS43 KUNR 242100 AAA
TAFRAP
TAF AMD
KRAP 242104Z 2421/2518 32020G30KT P6SM SCT050
      TEMPO 2421/2501 -SHRA BKN050
     FM250100 34016KT P6SM SCT150
     FM251500 33022G32KT P6SM SCT200=



000
FTUS43 KUNR 241700
TAFRAP
TAF
KRAP 241730Z 2418/2518 33020G30KT P6SM SCT050
     FM250100 34016KT P6SM SCT150
     FM251500 33022G32KT P6SM SCT200=



000
FTUS43 KUNR 241700
TAFGCC
TAF
KGCC 241730Z 2418/2518 31015G25KT P6SM SCT050
     FM242200 35010KT P6SM SCT050 OVC120
      TEMPO 2422/2502 -SHRA BKN025=



000
FTUS43 KUNR 241700
TAFRAP
TAF
KRAP 241730Z 2418/2518 33020G30KT P6SM SCT050
     FM250100 34016KT P6SM SCT150
     FM251500 33022G32KT P6SM SCT200=



000
FTUS43 KUNR 241700
TAFGCC
TAF
KGCC 241730Z 2418/2518 31015G25KT P6SM SCT050
     FM242200 35010KT P6SM SCT050 OVC120
      TEMPO 2422/2502 -SHRA BKN025=



000
FTUS43 KUNR 241100
TAFGCC
TAF
KGCC 241126Z 2412/2512 29010KT P6SM SCT120
     FM241600 30017KT P6SM SCT050
     FM250200 35011KT P6SM OVC025
     FM250800 34010KT P6SM BKN020=



000
FTUS43 KUNR 241100
TAFRAP
TAF
KRAP 241126Z 2412/2512 33013KT P6SM SCT100
     FM241600 33020G30KT P6SM SCT150
     FM250100 34012KT P6SM BKN080
     FM250700 34018G28KT P6SM SCT200=



000
FTUS43 KUNR 241100
TAFRAP
TAF
KRAP 241126Z 2412/2512 33013KT P6SM SCT100
     FM241600 33020G30KT P6SM SCT150
     FM250100 34012KT P6SM BKN080
     FM250700 34018G28KT P6SM SCT200=



000
FTUS43 KUNR 241100
TAFGCC
TAF
KGCC 241126Z 2412/2512 29010KT P6SM SCT120
     FM241600 30017KT P6SM SCT050
     FM250200 35011KT P6SM OVC025
     FM250800 34010KT P6SM BKN020=



000
FTUS43 KUNR 240900 AAB
TAFGCC
TAF AMD
KGCC 240915Z 2409/2506 30012KT P6SM SCT070 BKN150
     FM241400 29017KT P6SM SCT050
     FM250000 35015KT 4SM -RA OVC025=



000
FTUS43 KUNR 240700 AAA
TAFGCC
TAF AMD
KGCC 240714Z 2407/2506 31022G33KT P6SM -SHRA BKN040
      TEMPO 2407/2409 5SM SHRA BKN025
     FM240900 29018G28KT P6SM BKN050
     FM241500 29014G22KT P6SM SCT050
     FM250000 35015KT 4SM -RA OVC025=



000
FTUS43 KUNR 240700 AAA
TAFGCC
TAF AMD
KGCC 240714Z 2407/2506 31022G33KT P6SM -SHRA BKN040
      TEMPO 2407/2409 5SM SHRA BKN025
     FM240900 29018G28KT P6SM BKN050
     FM241500 29014G22KT P6SM SCT050
     FM250000 35015KT 4SM -RA OVC025=



    US Dept of Commerce
    National Oceanic and Atmospheric Administration
    National Weather Service
    1325 East West Highway
    Silver Spring, MD 20910
    Page Author: NWS Internet Services Team
Disclaimer
Information Quality
Credits
Glossary
Privacy Policy
Freedom of Information Act (FOIA)
About Us
Career Opportunities